This is the latest recevied weather packets stored in our database for station/object CT1EDG-13. If no packets are shown the sender has not sent any weather packets the latest 10 day(s).
| Time | Temp. | Humidity | Pressure | Rain* | Wind** | Luminosity | Snow |
|---|---|---|---|---|---|---|---|
| 1788599637 | 28.89° C | 79% | 1008.4 hPa | 0 mm | - | - | - |
| 1788599039 | 29.44° C | 77% | 1008.4 hPa | 0 mm | - | - | - |
| 1788599037 | 29.44° C | 77% | 1008.4 hPa | 0 mm | - | - | - |
| 1788598439 | 28.89° C | 79% | 1008.3 hPa | 0 mm | - | - | - |
| 1788598437 | 28.89° C | 79% | 1008.3 hPa | 0 mm | - | - | - |
| 1788597840 | 28.33° C | 80% | 1008.2 hPa | 0 mm | - | - | - |
| 1788597837 | 28.33° C | 80% | 1008.2 hPa | 0 mm | - | - | - |
| 1788597238 | 27.22° C | 86% | 1008.2 hPa | 0 mm | - | - | - |
| 1788597237 | 27.22° C | 86% | 1008.2 hPa | 0 mm | - | - | - |
| 1788596638 | 28.89° C | 76% | 1008.2 hPa | 0 mm | - | - | - |
| 1788596637 | 28.89° C | 76% | 1008.2 hPa | 0 mm | - | - | - |
| 1788596038 | 29.44° C | 73% | 1008.1 hPa | 0 mm | - | - | - |
| 1788596037 | 29.44° C | 73% | 1008.1 hPa | 0 mm | - | - | - |
| 1788595438 | 28.33° C | 83% | 1008.2 hPa | 0 mm | - | - | - |
| 1788595437 | 28.33° C | 83% | 1008.2 hPa | 0 mm | - | - | - |
| 1788594838 | 27.78° C | 81% | 1008.2 hPa | 0 mm | - | - | - |
| 1788594837 | 27.78° C | 81% | 1008.2 hPa | 0 mm | - | - | - |
| 1788594238 | 26.11° C | 90% | 1008.3 hPa | 0 mm | - | - | - |
| 1788594237 | 26.11° C | 90% | 1008.3 hPa | 0 mm | - | - | - |
| 1788593639 | 26.11° C | 88% | 1008.1 hPa | 0 mm | - | - | - |
| 1788593637 | 26.11° C | 88% | 1008.1 hPa | 0 mm | - | - | - |
| 1788593037 | 27.22° C | 82% | 1007.9 hPa | 0 mm | - | - | - |
| 1788593035 | 27.22° C | 82% | 1007.9 hPa | 0 mm | - | - | - |
| 1788592436 | 26.11° C | 87% | 1007.9 hPa | 0 mm | - | - | - |
| 1788592435 | 26.11° C | 87% | 1007.9 hPa | 0 mm | - | - | - |
* Rain latest hour (hover to see other rain measurements)
** Current wind speed in m/s (hover to see current wind gust speed)